Time;durP1;ratioP1;P1;durP2;ratioP2;P2;SDS_P1;SDS_P2;PMS_P1;PMS_P2;Temp;Humidity;BMP_temperature;BMP_pressure;BME280_temperature;BME280_humidity;BME280_pressure;Samples;Min_cycle;Max_cycle;Signal;HPM_P1;HPM_P2
2022/04/05 00:02:05;;;;;;;65.47;25.65;;;;;;;9.56;100.00;100734.13;5271803;28;20024;-80
2022/04/05 00:04:35;;;;;;;70.55;25.70;;;;;;;9.55;100.00;100735.16;5245845;28;20021;-80
2022/04/05 00:07:06;;;;;;;66.97;24.50;;;;;;;9.54;100.00;100722.75;5270062;28;20026;-80
2022/04/05 00:09:36;;;;;;;66.70;24.33;;;;;;;9.55;100.00;100735.16;5269408;28;20016;-80
2022/04/05 00:12:07;;;;;;;70.10;26.50;;;;;;;9.64;100.00;100728.81;5270027;28;20345;-80
2022/04/05 00:14:37;;;;;;;59.33;25.42;;;;;;;9.76;100.00;100748.94;5269524;28;20043;-80
2022/04/05 00:17:08;;;;;;;68.78;25.45;;;;;;;9.75;100.00;100743.75;5270695;28;20062;-80
2022/04/05 00:19:39;;;;;;;61.67;23.58;;;;;;;9.78;100.00;100736.19;5270646;28;20052;-80
2022/04/05 00:22:09;;;;;;;66.60;24.63;;;;;;;9.82;100.00;100742.91;5270546;28;20023;-80
2022/04/05 00:24:40;;;;;;;54.78;22.60;;;;;;;9.84;100.00;100750.81;5252817;28;20036;-78
2022/04/05 00:27:10;;;;;;;57.75;24.30;;;;;;;9.85;100.00;100747.13;5270392;28;20043;-80
2022/04/05 00:29:40;;;;;;;68.07;23.63;;;;;;;9.82;100.00;100742.06;5270134;28;20038;-79
2022/04/05 00:32:12;;;;;;;58.15;22.98;;;;;;;9.75;100.00;100741.91;5250440;28;20475;-79
2022/04/05 00:34:42;;;;;;;57.10;23.10;;;;;;;9.66;100.00;100737.50;5240428;28;20438;-81
2022/04/05 00:37:13;;;;;;;63.22;23.75;;;;;;;9.68;100.00;100734.66;5248890;28;20032;-79
2022/04/05 00:39:43;;;;;;;61.17;22.35;;;;;;;9.66;100.00;100728.66;5266148;28;20035;-79
2022/04/05 00:42:13;;;;;;;59.15;22.45;;;;;;;9.70;100.00;100735.34;5248136;28;20038;-79
2022/04/05 00:44:44;;;;;;;58.47;22.98;;;;;;;9.70;100.00;100721.97;5249021;28;20140;-79
2022/04/05 00:47:17;;;;;;;67.32;25.27;;;;;;;9.70;100.00;100730.00;5249563;28;20115;-79
2022/04/05 00:49:49;;;;;;;69.63;24.80;;;;;;;9.75;100.00;100725.00;5267327;28;20407;-79
2022/04/05 00:52:22;;;;;;;64.60;25.05;;;;;;;9.73;100.00;100724.28;5267740;28;20554;-79
2022/04/05 00:54:55;;;;;;;64.10;24.40;;;;;;;9.70;100.00;100725.47;5248931;28;20109;-79
2022/04/05 00:57:27;;;;;;;67.25;24.77;;;;;;;9.72;100.00;100725.31;5250091;28;20051;-79
2022/04/05 01:00:03;;;;;;;61.35;23.67;;;;;;;9.79;100.00;100732.53;5267202;28;20032;-79
2022/04/05 01:02:37;;;;;;;62.40;23.05;;;;;;;9.78;100.00;100728.16;5267533;28;20169;-79
2022/04/05 01:05:09;;;;;;;61.88;22.70;;;;;;;9.76;100.00;100726.66;5260344;28;20020;-79
2022/04/05 01:07:41;;;;;;;59.72;24.02;;;;;;;9.79;100.00;100735.22;5267713;28;20024;-79
2022/04/05 01:10:12;;;;;;;60.83;23.40;;;;;;;9.82;100.00;100732.19;5267606;28;20027;-79
2022/04/05 01:12:42;;;;;;;63.25;24.48;;;;;;;9.84;100.00;100740.09;5249069;28;20028;-79
2022/04/05 01:15:13;;;;;;;66.78;22.98;;;;;;;9.88;100.00;100741.41;5248645;28;20016;-79
2022/04/05 01:17:44;;;;;;;67.13;23.90;;;;;;;9.88;100.00;100735.22;5249712;28;20016;-79
2022/04/05 01:20:14;;;;;;;66.68;24.48;;;;;;;9.87;100.00;100739.75;5249806;28;20032;-79
2022/04/05 01:23:20;;;;;;;57.20;23.50;;;;;;;9.89;100.00;100742.25;5267159;28;20066;-80
2022/04/05 01:25:52;;;;;;;65.03;24.33;;;;;;;9.93;100.00;100736.41;5264712;28;20043;-79
2022/04/05 01:28:23;;;;;;;67.85;23.70;;;;;;;9.93;100.00;100735.56;5267050;28;20391;-79
2022/04/05 01:30:54;;;;;;;68.90;25.42;;;;;;;9.90;100.00;100728.72;5248939;28;20024;-79
2022/04/05 01:33:24;;;;;;;65.28;24.92;;;;;;;9.94;100.00;100737.22;5266087;28;20158;-79
2022/04/05 01:35:55;;;;;;;69.13;26.13;;;;;;;9.94;100.00;100738.09;5235099;28;20031;-79
2022/04/05 01:38:26;;;;;;;73.68;25.55;;;;;;;9.97;100.00;100734.22;5267441;28;20024;-79
2022/04/05 01:40:57;;;;;;;62.45;23.75;;;;;;;9.96;100.00;100735.25;5263599;28;20506;-79
2022/04/05 01:43:28;;;;;;;72.82;25.33;;;;;;;9.97;100.00;100735.06;5249309;28;20059;-79
2022/04/05 01:45:58;;;;;;;72.07;24.98;;;;;;;9.97;100.00;100727.03;5248695;28;20112;-79
2022/04/05 01:48:29;;;;;;;75.72;23.92;;;;;;;9.98;100.00;100731.38;5249209;28;20027;-79
2022/04/05 01:51:00;;;;;;;61.20;24.65;;;;;;;9.97;100.00;100724.34;5267218;28;20030;-78
2022/04/05 01:53:30;;;;;;;63.75;23.70;;;;;;;9.93;100.00;100722.16;5248916;28;20020;-79
2022/04/05 01:56:01;;;;;;;67.72;24.92;;;;;;;9.92;100.00;100725.84;5248930;28;20170;-79
2022/04/05 01:58:35;;;;;;;72.63;26.30;;;;;;;9.96;100.00;100714.66;5266999;28;20058;-79
2022/04/05 02:01:06;;;;;;;61.53;24.55;;;;;;;9.97;100.00;100724.34;5266629;28;20052;-79
2022/04/05 02:03:36;;;;;;;76.03;26.38;;;;;;;10.00;100.00;100718.69;5265658;28;20104;-79
2022/04/05 02:06:08;;;;;;;65.22;25.50;;;;;;;10.00;100.00;100718.69;5242582;28;20106;-79
2022/04/05 02:08:42;;;;;;;60.10;24.60;;;;;;;9.98;100.00;100722.50;5266606;28;20391;-79
2022/04/05 02:11:13;;;;;;;68.30;24.67;;;;;;;9.97;100.00;100721.66;5266251;28;20343;-79
2022/04/05 02:13:44;;;;;;;64.07;24.95;;;;;;;10.03;100.00;100726.38;5248682;28;20083;-79
2022/04/05 02:16:14;;;;;;;70.63;26.35;;;;;;;10.01;100.00;100719.50;5248534;28;20043;-79
2022/04/05 02:18:47;;;;;;;75.05;25.90;;;;;;;10.01;100.00;100717.66;5249438;28;20020;-79
2022/04/05 02:21:18;;;;;;;61.58;24.48;;;;;;;10.01;100.00;100720.34;5271236;28;20391;-79
2022/04/05 02:23:48;;;;;;;68.97;26.33;;;;;;;9.98;100.00;100726.03;5269418;28;20028;-80
2022/04/05 02:26:19;;;;;;;70.60;27.15;;;;;;;9.98;100.00;100723.34;5253579;28;20050;-80
2022/04/05 02:28:50;;;;;;;67.97;25.85;;;;;;;9.99;100.00;100721.50;5272069;28;20036;-79
2022/04/05 02:31:21;;;;;;;66.60;24.65;;;;;;;10.04;100.00;100724.53;5270295;28;20027;-79
2022/04/05 02:33:51;;;;;;;66.30;23.95;;;;;;;10.02;100.00;100730.06;5265413;28;20107;-79
2022/04/05 02:36:22;;;;;;;74.50;25.08;;;;;;;10.06;100.00;100728.72;5242128;28;20027;-80
2022/04/05 02:38:52;;;;;;;59.60;23.90;;;;;;;10.01;100.00;100723.03;5270436;28;20118;-80
2022/04/05 02:41:23;;;;;;;65.65;24.25;;;;;;;10.05;100.00;100720.84;5248211;28;20024;-80
2022/04/05 02:43:53;;;;;;;69.40;26.80;;;;;;;10.02;100.00;100726.53;5270193;28;20187;-80
2022/04/05 02:46:25;;;;;;;65.30;24.52;;;;;;;10.06;100.00;100720.69;5251796;28;20434;-79
2022/04/05 02:48:55;;;;;;;66.32;25.40;;;;;;;10.04;100.00;100717.34;5243400;28;20571;-79
2022/04/05 02:51:26;;;;;;;75.05;24.55;;;;;;;10.01;100.00;100725.72;5269696;28;20027;-80
2022/04/05 02:53:56;;;;;;;66.90;25.00;;;;;;;10.01;100.00;100720.34;5252221;28;20039;-80
2022/04/05 02:56:27;;;;;;;66.15;25.10;;;;;;;10.02;100.00;100715.81;5269211;28;20081;-80
2022/04/05 02:58:57;;;;;;;59.17;23.55;;;;;;;10.03;100.00;100718.31;5269894;28;20028;-81
2022/04/05 03:01:27;;;;;;;65.82;24.70;;;;;;;10.08;100.00;100715.97;5269930;28;20024;-78
2022/04/05 03:03:58;;;;;;;75.88;24.02;;;;;;;10.06;100.00;100717.16;5247406;28;20063;-79
2022/04/05 03:06:28;;;;;;;81.25;26.00;;;;;;;10.08;100.00;100715.97;5266675;28;20138;-79
2022/04/05 03:09:00;;;;;;;61.70;23.95;;;;;;;10.11;100.00;100714.81;5269354;28;20028;-79
2022/04/05 03:11:31;;;;;;;69.20;25.20;;;;;;;10.09;100.00;100711.47;5268844;28;20876;-78
2022/04/05 03:14:01;;;;;;;68.43;24.75;;;;;;;10.03;100.00;100704.91;5269438;28;20102;-79
2022/04/05 03:16:37;;;;;;;66.15;24.00;;;;;;;10.09;100.00;100716.81;5269303;28;20400;-79
2022/04/05 03:19:08;;;;;;;63.88;24.70;;;;;;;10.08;100.00;100715.97;5251473;28;20031;-79
2022/04/05 03:21:38;;;;;;;63.25;24.92;;;;;;;10.05;100.00;100713.66;5269476;28;20028;-80
2022/04/05 03:24:09;;;;;;;65.95;24.10;;;;;;;10.10;100.00;100724.72;5268664;28;20024;-80
2022/04/05 03:26:39;;;;;;;69.55;25.25;;;;;;;10.09;100.00;100719.50;5269358;28;20168;-79
2022/04/05 03:29:09;;;;;;;57.92;21.55;;;;;;;10.08;100.00;100712.47;5269156;28;20039;-80
2022/04/05 03:31:40;;;;;;;60.08;22.98;;;;;;;10.13;100.00;100720.84;5234744;28;20028;-79
2022/04/05 03:34:10;;;;;;;58.35;24.55;;;;;;;10.11;100.00;100715.66;5243074;28;20024;-79
2022/04/05 03:36:43;;;;;;;63.20;24.65;;;;;;;10.09;100.00;100715.00;5261252;28;20028;-80
2022/04/05 03:39:14;;;;;;;62.10;24.58;;;;;;;10.14;100.00;100714.50;5269092;28;20055;-80
2022/04/05 03:41:44;;;;;;;64.85;24.85;;;;;;;10.10;100.00;100716.69;5265227;28;20028;-80
2022/04/05 03:44:15;;;;;;;58.65;24.40;;;;;;;10.11;100.00;100715.66;5268588;28;20085;-80
2022/04/05 03:46:46;;;;;;;53.97;23.23;;;;;;;10.12;100.00;100713.81;5251105;28;20383;-80
2022/04/05 03:49:16;;;;;;;59.42;24.52;;;;;;;10.09;100.00;100717.69;5250461;28;20403;-80
2022/04/05 03:51:47;;;;;;;60.88;25.83;;;;;;;10.10;100.00;100708.63;5268299;28;20031;-79
2022/04/05 03:54:17;;;;;;;66.15;26.25;;;;;;;10.09;100.00;100712.31;5251551;28;20024;-80
2022/04/05 03:56:48;;;;;;;59.88;27.17;;;;;;;10.09;100.00;100716.81;5254281;28;20114;-80
2022/04/05 03:59:18;;;;;;;67.25;27.40;;;;;;;10.07;100.00;100711.63;5237281;28;20483;-80
2022/04/05 04:01:48;;;;;;;64.60;24.75;;;;;;;10.10;100.00;100711.31;5250229;28;20506;-80
2022/04/05 04:04:19;;;;;;;61.90;22.58;;;;;;;10.08;100.00;100707.94;5261446;28;20024;-79
2022/04/05 04:06:49;;;;;;;58.40;22.90;;;;;;;10.07;100.00;100706.28;5268513;28;20020;-80
2022/04/05 04:09:20;;;;;;;66.57;25.05;;;;;;;10.07;100.00;100705.44;5268269;28;20024;-80
2022/04/05 04:11:50;;;;;;;58.78;23.25;;;;;;;10.08;100.00;100707.94;5250186;28;20304;-79
2022/04/05 04:14:21;;;;;;;57.30;22.85;;;;;;;10.03;100.00;100712.13;5268451;28;20428;-80
2022/04/05 04:16:51;;;;;;;51.47;21.13;;;;;;;10.05;100.00;100712.81;5268377;28;20077;-80
2022/04/05 04:19:22;;;;;;;54.13;22.85;;;;;;;10.03;100.00;100707.59;5268212;28;20024;-80
2022/04/05 04:21:52;;;;;;;57.25;21.88;;;;;;;10.04;100.00;100709.31;5250273;28;20471;-80
2022/04/05 04:24:23;;;;;;;48.58;21.23;;;;;;;10.00;100.00;100705.28;5254228;28;20419;-80
2022/04/05 04:26:53;;;;;;;58.60;23.92;;;;;;;10.02;100.00;100703.25;5267725;28;20024;-80
2022/04/05 04:29:23;;;;;;;48.75;21.95;;;;;;;10.07;100.00;100706.28;5268081;28;20031;-79
2022/04/05 04:31:54;;;;;;;50.05;21.90;;;;;;;10.04;100.00;100706.63;5267802;28;20028;-79
2022/04/05 04:34:24;;;;;;;57.88;22.05;;;;;;;10.05;100.00;100712.81;5258310;28;20024;-79
2022/04/05 04:36:56;;;;;;;53.85;21.48;;;;;;;10.10;100.00;100711.31;5261699;28;20103;-80
2022/04/05 04:39:27;;;;;;;42.15;19.08;;;;;;;10.09;100.00;100714.13;5267486;28;20016;-80
2022/04/05 04:41:58;;;;;;;42.78;19.75;;;;;;;10.06;100.00;100711.81;5263823;28;20024;-79
2022/04/05 04:44:29;;;;;;;65.43;21.38;;;;;;;10.05;100.00;100707.47;5249104;28;20024;-80
2022/04/05 04:46:59;;;;;;;46.75;20.67;;;;;;;10.00;100.00;100712.47;5267323;28;20039;-79
2022/04/05 04:49:31;;;;;;;52.45;20.67;;;;;;;10.02;100.00;100711.28;5236100;28;20526;-79
2022/04/05 04:52:02;;;;;;;50.42;21.08;;;;;;;10.07;100.00;100711.63;5268803;28;20012;-79
2022/04/05 04:54:33;;;;;;;48.10;20.38;;;;;;;10.07;100.00;100719.69;5268353;28;20024;-79
2022/04/05 04:57:03;;;;;;;55.55;24.05;;;;;;;10.04;100.00;100720.03;5268659;28;20024;-81
2022/04/05 04:59:34;;;;;;;50.85;20.95;;;;;;;10.08;100.00;100712.47;5268826;28;20028;-80
2022/04/05 05:02:04;;;;;;;55.20;21.00;;;;;;;10.08;100.00;100709.78;5268698;28;20387;-78
2022/04/05 05:04:35;;;;;;;99.50;49.13;;;;;;;10.06;100.00;100723.38;5242967;28;20028;-79
2022/04/05 05:07:06;;;;;;;47.47;23.67;;;;;;;10.12;100.00;100711.13;5268484;28;20058;-79
2022/04/05 05:09:36;;;;;;;59.45;30.70;;;;;;;10.09;100.00;100712.31;5268545;28;20031;-80
2022/04/05 05:12:10;;;;;;;69.25;40.25;;;;;;;10.13;100.00;100718.16;5267637;28;20054;-80
2022/04/05 05:14:40;;;;;;;68.18;38.65;;;;;;;10.08;100.00;100726.69;5233555;28;20058;-79
2022/04/05 05:17:11;;;;;;;60.70;32.22;;;;;;;10.05;100.00;100713.66;5250294;28;20020;-80
2022/04/05 05:19:41;;;;;;;49.88;24.67;;;;;;;10.11;100.00;100715.66;5266774;28;20031;-78
2022/04/05 05:22:12;;;;;;;50.97;23.98;;;;;;;10.12;100.00;100720.00;5267021;28;20434;-76
2022/04/05 05:24:42;;;;;;;57.00;28.83;;;;;;;10.11;100.00;100718.34;5266225;28;20035;-78
2022/04/05 05:27:15;;;;;;;59.00;24.70;;;;;;;10.09;100.00;100716.81;5266854;28;20028;-78
2022/04/05 05:29:45;;;;;;;55.03;25.50;;;;;;;10.12;100.00;100722.69;5249515;28;20032;-79
2022/04/05 05:32:16;;;;;;;49.65;24.85;;;;;;;10.07;100.00;100716.16;5267434;28;20436;-75
2022/04/05 05:34:47;;;;;;;45.85;22.17;;;;;;;10.06;100.00;100728.72;5255443;28;20036;-76
2022/04/05 05:37:17;;;;;;;48.42;20.75;;;;;;;10.07;100.00;100724.19;5263889;28;20097;-76
2022/04/05 05:39:48;;;;;;;48.13;20.27;;;;;;;10.10;100.00;100729.25;5264000;28;20050;-75
2022/04/05 05:42:18;;;;;;;45.30;21.35;;;;;;;10.10;100.00;100727.41;5247505;28;20078;-76
2022/04/05 05:44:49;;;;;;;38.63;19.42;;;;;;;10.12;100.00;100732.59;5265790;28;20028;-76
2022/04/05 05:47:20;;;;;;;46.42;21.20;;;;;;;10.13;100.00;100739.63;5266246;28;20024;-75
2022/04/05 05:49:50;;;;;;;54.08;28.65;;;;;;;10.12;100.00;100746.81;5266377;28;20039;-76
2022/04/05 05:52:21;;;;;;;61.92;32.20;;;;;;;10.13;100.00;100742.28;5266216;28;20046;-77
2022/04/05 05:54:52;;;;;;;57.60;31.80;;;;;;;10.08;100.00;100741.94;5266056;28;20024;-76
2022/04/05 05:57:22;;;;;;;42.63;26.05;;;;;;;10.13;100.00;100740.44;5267009;28;20020;-77
2022/04/05 05:59:53;;;;;;;54.15;32.83;;;;;;;10.21;100.00;100741.47;5267201;28;20229;-77
2022/04/05 06:02:23;;;;;;;38.33;16.17;;;;;;;10.19;100.00;100744.34;5270316;28;20445;-77
2022/04/05 06:04:54;;;;;;;34.55;16.75;;;;;;;10.13;100.00;100751.16;5263871;28;20028;-77
2022/04/05 06:07:24;;;;;;;47.42;28.08;;;;;;;10.17;100.00;100750.84;5270455;28;20041;-77
2022/04/05 06:09:55;;;;;;;64.35;36.15;;;;;;;10.20;100.00;100751.38;5270241;28;20031;-77
2022/04/05 06:12:26;;;;;;;32.80;21.15;;;;;;;10.20;100.00;100756.72;5270223;28;20479;-77
2022/04/05 06:14:56;;;;;;;32.17;17.40;;;;;;;10.20;100.00;100756.72;5269798;28;20082;-77
2022/04/05 06:17:27;;;;;;;28.58;14.93;;;;;;;10.24;100.00;100757.25;5270472;28;20074;-77
2022/04/05 06:19:57;;;;;;;38.97;13.93;;;;;;;10.25;100.00;100758.94;5270692;28;20468;-78
2022/04/05 06:22:28;;;;;;;31.10;14.65;;;;;;;10.25;100.00;100759.78;5252013;28;20032;-77
2022/04/05 06:24:58;;;;;;;21.60;12.93;;;;;;;10.29;100.00;100763.81;5269686;28;20110;-77
2022/04/05 06:27:29;;;;;;;26.45;13.07;;;;;;;10.33;100.00;100761.63;5269889;28;20071;-77
2022/04/05 06:29:59;;;;;;;28.58;14.10;;;;;;;10.32;100.00;100768.81;5270083;28;20455;-77
2022/04/05 06:32:30;;;;;;;26.80;13.55;;;;;;;10.33;100.00;100772.34;5269778;28;20052;-77
2022/04/05 06:35:02;;;;;;;26.80;14.20;;;;;;;10.38;100.00;100767.31;5255168;28;20078;-80
2022/04/05 06:37:32;;;;;;;359.88;116.43;;;;;;;10.40;100.00;100769.84;5251743;28;20012;-77
2022/04/05 06:40:05;;;;;;;151.55;60.83;;;;;;;10.42;100.00;100775.88;5265845;28;20024;-77
2022/04/05 06:42:41;;;;;;;33.30;20.98;;;;;;;10.47;100.00;100773.53;5269748;28;20016;-80
2022/04/05 06:45:17;;;;;;;159.32;109.65;;;;;;;10.51;100.00;100781.06;5269946;28;20024;-80
2022/04/05 06:47:48;;;;;;;43.78;28.52;;;;;;;10.53;100.00;100775.53;5252865;28;20045;-80
2022/04/05 06:53:06;;;;;;;27.50;16.08;;;;;;;10.53;100.00;100779.06;5270221;28;20028;-80
2022/04/05 06:55:37;;;;;;;33.65;17.65;;;;;;;10.53;100.00;100780.91;5251894;28;20402;-80
2022/04/05 06:58:08;;;;;;;29.55;17.52;;;;;;;10.55;100.00;100785.09;5252393;28;20483;-80
2022/04/05 07:00:39;;;;;;;28.77;16.10;;;;;;;10.54;100.00;100780.75;5252206;28;20110;-80
2022/04/05 07:03:09;;;;;;;31.13;14.77;;;;;;;10.53;100.00;100784.41;5270604;28;20498;-80
2022/04/05 07:05:40;;;;;;;28.05;14.85;;;;;;;10.55;100.00;100787.78;5262804;28;20058;-80
2022/04/05 07:08:10;;;;;;;28.73;15.10;;;;;;;10.50;100.00;100779.41;5252220;28;20502;-81
2022/04/05 07:10:41;;;;;;;29.90;16.23;;;;;;;10.49;100.00;100785.78;5252220;28;20298;-80
2022/04/05 07:13:11;;;;;;;27.92;15.38;;;;;;;10.49;100.00;100782.22;5269281;28;20034;-80
2022/04/05 07:15:42;;;;;;;29.77;15.13;;;;;;;10.54;100.00;100779.88;5255504;28;20031;-79
2022/04/05 07:18:12;;;;;;;32.80;17.02;;;;;;;10.51;100.00;100783.75;5252396;28;20475;-79
2022/04/05 07:20:43;;;;;;;33.67;18.80;;;;;;;10.52;100.00;100779.22;5269415;28;20108;-79
2022/04/05 07:23:15;;;;;;;31.10;18.88;;;;;;;10.57;100.00;100783.09;5269981;28;20127;-79
2022/04/05 07:25:46;;;;;;;30.13;17.92;;;;;;;10.55;100.00;100781.59;5251396;28;20038;-80
2022/04/05 07:28:16;;;;;;;36.05;23.58;;;;;;;10.58;100.00;100786.59;5270121;28;20016;-80
2022/04/05 07:30:46;;;;;;;27.00;16.45;;;;;;;10.60;100.00;100788.13;5270832;28;20020;-79
2022/04/05 07:33:18;;;;;;;25.13;16.70;;;;;;;10.70;100.00;100787.13;5252106;28;20055;-79
2022/04/05 07:35:49;;;;;;;32.17;16.90;;;;;;;10.72;100.00;100785.09;5235658;28;20028;-79
2022/04/05 07:38:19;;;;;;;27.48;16.00;;;;;;;10.73;100.00;100779.56;5269599;28;20240;-79
2022/04/05 07:40:51;;;;;;;27.15;17.33;;;;;;;10.81;100.00;100778.72;5266749;28;20028;-79
2022/04/05 07:43:23;;;;;;;28.48;16.23;;;;;;;10.77;100.00;100782.75;5269713;28;20050;-79
2022/04/05 07:45:56;;;;;;;31.23;15.82;;;;;;;10.78;100.00;100797.81;5269361;28;20024;-79
2022/04/05 07:48:28;;;;;;;23.80;13.98;;;;;;;10.88;100.00;100793.13;5269371;28;20101;-80
2022/04/05 07:51:00;;;;;;;28.88;15.73;;;;;;;10.98;100.00;100792.94;5271043;28;20023;-79
2022/04/05 07:53:30;;;;;;;25.70;15.27;;;;;;;11.03;100.00;100791.41;5270489;28;20024;-79
2022/04/05 07:56:01;;;;;;;26.27;16.23;;;;;;;11.03;100.00;100793.28;5252170;28;20039;-79
2022/04/05 07:58:31;;;;;;;32.53;16.65;;;;;;;11.08;100.00;100791.75;5270473;28;20026;-79
2022/04/05 08:01:02;;;;;;;25.77;15.23;;;;;;;11.12;100.00;100789.56;5269714;28;20035;-79
2022/04/05 08:03:34;;;;;;;29.00;19.48;;;;;;;11.05;100.00;100799.31;5269863;28;20076;-79
2022/04/05 08:06:05;;;;;;;24.05;13.90;;;;;;;11.01;100.00;100801.50;5263653;28;20024;-80
2022/04/05 08:08:35;;;;;;;26.65;16.20;;;;;;;11.02;100.00;100784.38;5270512;28;20111;-79
2022/04/05 08:11:06;;;;;;;52.60;39.15;;;;;;;11.00;100.00;100796.31;5270476;28;20111;-80
2022/04/05 08:13:36;;;;;;;32.80;21.38;;;;;;;11.03;100.00;100794.09;5272566;28;20024;-79
2022/04/05 08:16:07;;;;;;;21.75;14.20;;;;;;;11.01;100.00;100784.56;5267882;28;20054;-79
2022/04/05 08:18:37;;;;;;;30.95;19.75;;;;;;;11.08;100.00;100797.13;5268545;28;20038;-79
2022/04/05 08:21:08;;;;;;;22.90;13.52;;;;;;;11.08;100.00;100791.75;5268063;28;20028;-79
2022/04/05 08:23:38;;;;;;;18.75;12.00;;;;;;;11.19;100.00;100795.09;5267915;28;20111;-79
2022/04/05 08:26:09;;;;;;;21.65;13.90;;;;;;;11.17;100.00;100792.59;5267868;28;20032;-79
2022/04/05 08:28:39;;;;;;;21.65;13.05;;;;;;;11.25;100.00;100800.63;5268553;28;20558;-79
2022/04/05 08:31:10;;;;;;;34.95;16.45;;;;;;;11.32;100.00;100800.78;5266358;28;20436;-79
2022/04/05 08:33:40;;;;;;;30.88;13.65;;;;;;;11.40;100.00;100798.06;5246772;28;20467;-79
2022/04/05 08:36:11;;;;;;;30.00;12.15;;;;;;;11.44;100.00;100794.00;5256340;28;20108;-79
2022/04/05 08:38:42;;;;;;;24.92;13.75;;;;;;;11.54;100.00;100789.25;5267833;28;20046;-79
2022/04/05 08:41:14;;;;;;;22.98;14.55;;;;;;;11.52;100.00;100796.66;5264799;28;20031;-79
2022/04/05 08:43:45;;;;;;;21.98;12.68;;;;;;;11.59;100.00;100800.31;5267881;28;20027;-79
2022/04/05 08:46:17;;;;;;;20.30;12.48;;;;;;;11.54;100.00;100797.31;5249080;28;20020;-79
2022/04/05 08:48:48;;;;;;;22.33;13.27;;;;;;;11.62;100.00;100794.63;5267771;28;20330;-79
2022/04/05 08:51:18;;;;;;;17.08;11.30;;;;;;;11.71;100.00;100805.34;5268031;28;20115;-79
2022/04/05 08:53:49;;;;;;;20.42;11.98;;;;;;;11.80;100.00;100799.75;5249922;28;20028;-79
2022/04/05 08:56:20;;;;;;;19.58;12.20;;;;;;;11.97;100.00;100800.53;5268082;28;20175;-79
2022/04/05 08:58:50;;;;;;;18.77;11.45;;;;;;;12.03;100.00;100799.81;5250052;28;20038;-79
2022/04/05 09:01:21;;;;;;;15.07;10.80;;;;;;;12.16;100.00;100800.09;5267156;28;20028;-78
2022/04/05 09:03:52;;;;;;;21.58;13.25;;;;;;;12.29;100.00;100804.03;5263495;28;20399;-79
2022/04/05 09:06:26;;;;;;;29.80;14.77;;;;;;;12.35;100.00;100798.78;5263250;28;20039;-79
2022/04/05 09:08:58;;;;;;;39.42;13.27;;;;;;;12.43;100.00;100803.25;5266943;28;20020;-79
2022/04/05 09:11:28;;;;;;;18.10;13.85;;;;;;;12.70;100.00;100800.03;5266863;28;20073;-78
2022/04/05 09:14:02;;;;;;;14.77;9.85;;;;;;;12.79;100.00;100797.25;5266507;28;20020;-78
2022/04/05 09:16:34;;;;;;;46.38;12.70;;;;;;;12.64;100.00;100805.28;5266631;28;20032;-78
2022/04/05 09:19:21;;;;;;;13.23;8.85;;;;;;;12.47;100.00;100809.97;5266856;28;20027;-79
2022/04/05 09:21:54;;;;;;;20.50;12.02;;;;;;;12.21;100.00;100804.94;5266903;28;20039;-78
2022/04/05 09:24:44;;;;;;;42.22;15.43;;;;;;;12.11;100.00;100802.47;5266094;28;20024;-79
2022/04/05 09:27:14;;;;;;;25.92;15.45;;;;;;;12.13;100.00;100813.03;5248681;28;20016;-78
2022/04/05 09:29:49;;;;;;;26.38;15.07;;;;;;;12.11;100.00;100809.72;5266857;28;20517;-79
2022/04/05 09:32:34;;;;;;;14.85;10.65;;;;;;;12.29;100.00;100814.78;5266271;28;20028;-79
2022/04/05 09:35:06;;;;;;;16.27;10.45;;;;;;;12.40;100.00;100809.03;5250294;28;20715;-79
2022/04/05 09:37:46;;;;;;;17.52;10.70;;;;;;;12.54;100.00;100824.34;5266460;28;20069;-79
2022/04/05 09:40:37;;;;;;;14.40;9.40;;;;;;;12.46;100.00;100815.53;5260117;28;20024;-79
2022/04/05 09:43:12;;;;;;;15.07;10.18;;;;;;;12.38;100.00;100819.09;5266227;28;20082;-78
2022/04/05 09:45:43;;;;;;;15.80;9.45;;;;;;;12.16;100.00;100826.16;5265670;28;20035;-79
2022/04/05 09:48:15;;;;;;;15.35;9.73;;;;;;;12.14;100.00;100823.59;5266789;28;20040;-78
2022/04/05 09:51:09;;;;;;;17.02;10.13;;;;;;;12.39;100.00;100826.16;5266215;28;20055;-79
2022/04/05 09:53:39;;;;;;;14.20;9.43;;;;;;;12.73;100.00;100828.44;5266074;28;20030;-78
2022/04/05 09:56:11;;;;;;;18.52;9.48;;;;;;;12.77;100.00;100821.66;5265908;28;20107;-78
2022/04/05 09:58:45;;;;;;;15.07;9.13;;;;;;;13.00;100.00;100827.00;5266404;28;20024;-79
2022/04/05 10:01:18;;;;;;;16.65;9.38;;;;;;;13.20;100.00;100816.53;5266433;28;20086;-79
2022/04/05 10:04:02;;;;;;;13.75;8.93;;;;;;;13.09;100.00;100828.59;5263122;28;20500;-79
2022/04/05 10:06:38;;;;;;;13.80;8.60;;;;;;;12.97;100.00;100824.69;5263777;28;20107;-79
2022/04/05 10:09:09;;;;;;;12.63;8.70;;;;;;;12.92;100.00;100827.09;5266318;28;20024;-78
2022/04/05 10:11:41;;;;;;;17.42;8.93;;;;;;;12.72;100.00;100831.31;5266078;28;20285;-79
2022/04/05 10:14:20;;;;;;;15.65;9.25;;;;;;;12.56;100.00;100835.81;5265508;28;20389;-79
2022/04/05 10:16:52;;;;;;;14.98;8.90;;;;;;;12.49;100.00;100824.06;5266039;28;20035;-79
2022/04/05 10:19:24;;;;;;;14.32;10.00;;;;;;;12.42;100.00;100836.56;5266072;28;20032;-79
2022/04/05 10:21:57;;;;;;;18.13;10.68;;;;;;;12.46;100.00;100840.59;5266040;28;20035;-79
2022/04/05 10:24:29;;;;;;;24.08;14.63;;;;;;;12.47;100.00;100830.66;5265678;28;20042;-79
2022/04/05 10:27:00;;;;;;;14.75;9.02;;;;;;;12.50;100.00;100836.53;5265754;28;20024;-78
2022/04/05 10:29:31;;;;;;;15.43;9.48;;;;;;;12.40;100.00;100838.63;5265879;28;20081;-79
2022/04/05 10:32:10;;;;;;;15.93;10.32;;;;;;;12.41;100.00;100840.28;5265773;28;20027;-79
2022/04/05 10:34:44;;;;;;;15.60;10.35;;;;;;;12.37;100.00;100842.47;5253892;28;20028;-79
2022/04/05 10:37:19;;;;;;;18.52;11.40;;;;;;;12.38;100.00;100844.16;5263224;28;20389;-79
2022/04/05 10:40:07;;;;;;;21.13;11.60;;;;;;;12.41;100.00;100841.13;5263472;28;20024;-79
2022/04/05 10:42:40;;;;;;;22.00;11.57;;;;;;;12.32;100.00;100835.97;5254362;28;20277;-78
2022/04/05 10:45:29;;;;;;;18.05;11.48;;;;;;;12.33;100.00;100834.94;5265440;28;20028;-79
2022/04/05 10:48:08;;;;;;;18.50;10.73;;;;;;;12.27;100.00;100832.97;5270033;28;20036;-79
2022/04/05 10:50:42;;;;;;;19.45;12.07;;;;;;;12.30;100.00;100832.59;5270473;28;20434;-79
2022/04/05 10:53:17;;;;;;;17.55;10.90;;;;;;;12.37;100.00;100829.03;5252151;28;20050;-79
2022/04/05 10:56:07;;;;;;;19.20;11.77;;;;;;;12.56;100.00;100833.09;5269485;28;20085;-79
2022/04/05 10:59:00;;;;;;;40.35;21.92;;;;;;;12.73;100.00;100828.44;5251600;28;20090;-79
2022/04/05 11:01:50;;;;;;;20.10;12.73;;;;;;;13.02;100.00;100827.69;5237826;28;20024;-79
2022/04/05 11:04:39;;;;;;;33.72;23.55;;;;;;;13.08;100.00;100826.94;5262746;28;20055;-83
2022/04/05 11:07:10;;;;;;;23.58;17.88;;;;;;;13.23;100.00;100823.47;5255907;28;20490;-79
2022/04/05 11:09:47;;;;;;;22.33;12.55;;;;;;;13.31;100.00;100821.53;5270156;28;20115;-79
2022/04/05 11:12:21;;;;;;;14.63;9.70;;;;;;;13.28;100.00;100818.38;5252310;28;20490;-80
2022/04/05 11:14:55;;;;;;;15.73;10.00;;;;;;;13.31;100.00;100815.31;5269694;28;20042;-80
2022/04/05 11:17:27;;;;;;;56.00;22.95;;;;;;;13.37;100.00;100818.09;5269909;28;20036;-79
2022/04/05 11:20:00;;;;;;;35.03;17.40;;;;;;;13.18;100.00;100815.91;5269994;28;20035;-80
2022/04/05 11:22:34;;;;;;;26.08;16.17;;;;;;;13.01;100.00;100817.94;5269692;28;20027;-79
2022/04/05 11:25:07;;;;;;;20.88;11.57;;;;;;;13.03;100.00;100810.50;5269417;28;20098;-79
2022/04/05 11:27:46;;;;;;;16.33;9.07;;;;;;;13.20;100.00;100805.75;5269867;28;20076;-80
2022/04/05 11:30:37;;;;;;;13.80;10.02;;;;;;;13.21;100.00;100811.03;5252085;28;20540;-80